»·PEaware :: N143VT KPSP-KPSP

N143VT :: KPSP-KPSP

FLIGHT INFORMATION

Flight Status: Arrived
Operator: Privately registered:
United States
More flights under this callsign
Pilot: Anonymous 16492 (16492)
Aircraft: Unknown
(DA62)
More flights by this aircraft type
Origin: KPSP Palm Springs Intl
United States
Destination: KPSP Palm Springs Intl
United States
More flights between these airports :: More routes between these airports
Route: +
File this flight plan on PilotEdge
Remarks:
Altitude:
(Current/Filed)
0ft
Speed:
(Current/Filed)
0kts
Departed: 26-Jul-18 04:44 PM
Arrived: 26-Jul-18 05:16 PM
Distance/Time
Traveled:
0nm/0:32
Distance/Time
To Go:
Arrived

Flight Plot

Page will automatically refresh every two minutes.


Map Options




Map Legend


Flown Route
Filed Route
Departure Airport
Arrival Airport
Navaid (VOR, NDB)
Fix

Horizontal Profiles

Position Reports

Time Latitude Longitude Heading Altitude Ground
Speed
26-Jul-18 16:37 33.825347 -116.509425 93 481ft 4kts
26-Jul-18 16:38 33.825364 -116.508836 85 481ft 0kts
26-Jul-18 16:39 33.825364 -116.508836 85 481ft 0kts
26-Jul-18 16:40 33.825370 -116.507271 92 481ft 10kts
26-Jul-18 16:41 33.823402 -116.504041 142 481ft 20kts
26-Jul-18 16:42 33.818521 -116.499554 95 481ft 6kts
26-Jul-18 16:43 33.818521 -116.498966 86 481ft 0kts
26-Jul-18 16:44 33.818521 -116.498966 86 481ft 0kts
26-Jul-18 16:45 33.824868 -116.503422 322 481ft 96kts
26-Jul-18 16:46 33.848496 -116.522736 18 1293ft 107kts
26-Jul-18 16:47 33.863172 -116.489021 118 1657ft 131kts
26-Jul-18 16:48 33.834387 -116.456434 138 1608ft 148kts
26-Jul-18 16:49 33.806801 -116.446506 229 1549ft 99kts
26-Jul-18 16:50 33.798416 -116.474631 288 1139ft 91kts
26-Jul-18 16:51 33.816690 -116.496342 322 606ft 94kts
26-Jul-18 16:52 33.836566 -116.513959 322 665ft 103kts
26-Jul-18 16:53 33.861885 -116.510976 62 1325ft 146kts
26-Jul-18 16:54 33.843535 -116.472305 141 1706ft 160kts
26-Jul-18 16:55 33.808136 -116.445949 194 1720ft 151kts
26-Jul-18 16:56 33.789239 -116.476323 278 1372ft 110kts
26-Jul-18 16:57 33.817426 -116.496835 322 571ft 95kts
26-Jul-18 16:58 33.838322 -116.515456 323 703ft 108kts
26-Jul-18 16:59 33.864861 -116.521580 57 1350ft 140kts
26-Jul-18 17:00 33.851652 -116.486317 151 1482ft 150kts
26-Jul-18 17:01 33.817980 -116.459846 140 1296ft 140kts
26-Jul-18 17:02 33.794720 -116.467633 237 1074ft 117kts
26-Jul-18 17:03 33.811043 -116.490929 320 667ft 92kts
26-Jul-18 17:04 33.830879 -116.508825 322 517ft 104kts
26-Jul-18 17:05 33.853232 -116.530717 315 1361ft 102kts
26-Jul-18 17:06 33.872384 -116.554180 311 2341ft 94kts
26-Jul-18 17:07 33.889248 -116.579452 309 3308ft 89kts
26-Jul-18 17:08 33.905059 -116.605593 308 4175ft 95kts
26-Jul-18 17:09 33.923525 -116.627503 4 4321ft 95kts
26-Jul-18 17:10 33.917860 -116.599748 136 3592ft 110kts
26-Jul-18 17:11 33.906344 -116.565767 115 2575ft 107kts
26-Jul-18 17:12 33.895469 -116.536305 100 1885ft 88kts
26-Jul-18 17:13 33.884277 -116.511680 137 1428ft 85kts
26-Jul-18 17:14 33.862767 -116.503711 184 1081ft 81kts
26-Jul-18 17:15 33.840884 -116.495413 150 819ft 83kts
26-Jul-18 17:16 33.821799 -116.486217 201 761ft 69kts
26-Jul-18 17:17 33.827937 -116.503275 320 481ft 20kts
26-Jul-18 17:18 33.830064 -116.504174 114 481ft 1kts
26-Jul-18 17:19 33.828707 -116.502871 146 481ft 8kts
26-Jul-18 17:20 33.826841 -116.500816 99 481ft 12kts
26-Jul-18 17:21 33.826620 -116.500251 311 481ft 0kts
26-Jul-18 17:22 33.822483 -116.496000 233 481ft 0kts
26-Jul-18 17:23 33.822483 -116.496000 233 481ft 0kts
26-Jul-18 17:24 33.822483 -116.496000 233 481ft 0kts
26-Jul-18 17:25 33.822483 -116.496000 233 481ft 0kts
26-Jul-18 17:26 33.822483 -116.496000 233 481ft 0kts
26-Jul-18 17:27 33.822483 -116.496000 233 481ft 0kts
26-Jul-18 17:28 33.820843 -116.495678 131 481ft 6kts
26-Jul-18 17:29 33.820081 -116.495648 229 481ft 8kts
26-Jul-18 17:30 33.819101 -116.497242 236 481ft 12kts
26-Jul-18 17:31 33.832692 -116.510928 318 675ft 96kts

Navigation Log

Ident Type
1. KPSP Airport
2. KPSP Airport